UAL2945 KMIA-KJFK
Flight info
| Callsign | UAL2945 |
|---|---|
| Flight time | 2h 22m |
| Altitude | 39000 |
| Route | FOLZZ3 ALYRA PELCN Y309 FLRDA SAGGY CHIEZ Q161 KALDA Q108 SIE CAMRN5 |
| Aircraft | B772/H-SDE2E3FGHIJ5LORVWXY/LB1D1 |
Departure
| Time | 2026-05-05 03:55 |
|---|---|
| Airport | Miami International Airport (KMIA) |
Arrival
| Time | 2026-05-05 06:17 |
|---|---|
| Airport | John F. Kennedy International Airport (KJFK) |
| Time | Latitude | Longitude | Altitude | Speed | Heading |
|---|---|---|---|---|---|
| 2026-05-05 03:27 | 25.79007 | -80.27393 | 26 ft | 0 kts | 46° |
| 2026-05-05 03:41 | 25.79004 | -80.27396 | 24 ft | 3 kts | 46° |
| 2026-05-05 03:41 | 25.78985 | -80.27418 | 30 ft | 4 kts | 46° |
| 2026-05-05 03:41 | 25.78967 | -80.27439 | 30 ft | 4 kts | 44° |
| 2026-05-05 03:42 | 25.78946 | -80.27456 | 31 ft | 4 kts | 13° |
| 2026-05-05 03:42 | 25.78921 | -80.27455 | 29 ft | 4 kts | 330° |
| 2026-05-05 03:42 | 25.78910 | -80.27447 | 29 ft | 1 kts | 312° |
| 2026-05-05 03:43 | 25.78933 | -80.27458 | 30 ft | 10 kts | 350° |
| 2026-05-05 03:43 | 25.78937 | -80.27458 | 30 ft | 0 kts | 352° |
| 2026-05-05 03:44 | 25.78936 | -80.27458 | 30 ft | 0 kts | 352° |
| 2026-05-05 03:44 | 25.78937 | -80.27458 | 30 ft | 0 kts | 352° |
| 2026-05-05 03:44 | 25.78941 | -80.27459 | 31 ft | 1 kts | 352° |
| 2026-05-05 03:44 | 25.78951 | -80.27461 | 30 ft | 2 kts | 352° |
| 2026-05-05 03:45 | 25.78954 | -80.27461 | 31 ft | 0 kts | 352° |
| 2026-05-05 03:46 | 25.78956 | -80.27461 | 31 ft | 1 kts | 352° |
| 2026-05-05 03:46 | 25.78958 | -80.27462 | 31 ft | 1 kts | 352° |
| 2026-05-05 03:46 | 25.78963 | -80.27478 | 31 ft | 3 kts | 269° |
| 2026-05-05 03:47 | 25.78940 | -80.27501 | 24 ft | 9 kts | 217° |
| 2026-05-05 03:47 | 25.78899 | -80.27574 | 27 ft | 12 kts | 253° |
| 2026-05-05 03:47 | 25.78882 | -80.27663 | 28 ft | 12 kts | 263° |
| 2026-05-05 03:47 | 25.78877 | -80.27755 | 26 ft | 12 kts | 267° |
| 2026-05-05 03:48 | 25.78872 | -80.27872 | 28 ft | 13 kts | 267° |
| 2026-05-05 03:48 | 25.78885 | -80.27970 | 29 ft | 13 kts | 295° |
| 2026-05-05 03:48 | 25.78933 | -80.28063 | 30 ft | 14 kts | 300° |
| 2026-05-05 03:48 | 25.78982 | -80.28157 | 29 ft | 14 kts | 300° |
| 2026-05-05 03:49 | 25.79033 | -80.28259 | 30 ft | 18 kts | 297° |
| 2026-05-05 03:49 | 25.79102 | -80.28395 | 27 ft | 21 kts | 300° |
| 2026-05-05 03:49 | 25.79188 | -80.28532 | 27 ft | 22 kts | 300° |
| 2026-05-05 03:49 | 25.79263 | -80.28676 | 25 ft | 22 kts | 300° |
| 2026-05-05 03:50 | 25.79338 | -80.28822 | 24 ft | 22 kts | 298° |
| 2026-05-05 03:50 | 25.79412 | -80.28968 | 28 ft | 22 kts | 299° |
| 2026-05-05 03:50 | 25.79486 | -80.29114 | 30 ft | 22 kts | 299° |
| 2026-05-05 03:50 | 25.79560 | -80.29260 | 27 ft | 22 kts | 299° |
| 2026-05-05 03:51 | 25.79635 | -80.29406 | 31 ft | 22 kts | 300° |
| 2026-05-05 03:51 | 25.79708 | -80.29550 | 29 ft | 22 kts | 300° |
| 2026-05-05 03:51 | 25.79784 | -80.29696 | 23 ft | 22 kts | 300° |
| 2026-05-05 03:51 | 25.79843 | -80.29812 | 21 ft | 14 kts | 300° |
| 2026-05-05 03:52 | 25.79885 | -80.29895 | 22 ft | 9 kts | 299° |
| 2026-05-05 03:52 | 25.79911 | -80.29946 | 23 ft | 8 kts | 299° |
| 2026-05-05 03:52 | 25.79938 | -80.29999 | 21 ft | 8 kts | 299° |
| 2026-05-05 03:52 | 25.79980 | -80.30083 | 25 ft | 12 kts | 300° |
| 2026-05-05 03:53 | 25.80043 | -80.30125 | 23 ft | 8 kts | 2° |
| 2026-05-05 03:53 | 25.80073 | -80.30093 | 26 ft | 4 kts | 74° |
| 2026-05-05 03:53 | 25.80073 | -80.30085 | 25 ft | 0 kts | 89° |
| 2026-05-05 03:53 | 25.80073 | -80.30082 | 25 ft | 0 kts | 86° |
| 2026-05-05 03:54 | 25.80073 | -80.30081 | 25 ft | 1 kts | 86° |
| 2026-05-05 03:54 | 25.80079 | -80.29954 | 22 ft | 45 kts | 87° |
| 2026-05-05 03:54 | 25.80107 | -80.29277 | 28 ft | 129 kts | 87° |
| 2026-05-05 03:55 | 25.80164 | -80.28106 | 394 ft | 160 kts | 85° |
| 2026-05-05 03:55 | 25.80241 | -80.26849 | 1318 ft | 160 kts | 85° |
| 2026-05-05 03:55 | 25.80244 | -80.25543 | 2090 ft | 187 kts | 102° |
| 2026-05-05 03:55 | 25.79646 | -80.24114 | 2327 ft | 219 kts | 118° |
| 2026-05-05 03:56 | 25.78882 | -80.22533 | 2606 ft | 249 kts | 116° |
| 2026-05-05 03:56 | 25.78074 | -80.20785 | 3394 ft | 255 kts | 116° |
| 2026-05-05 03:56 | 25.77259 | -80.19011 | 4158 ft | 265 kts | 117° |
| 2026-05-05 03:56 | 25.76386 | -80.17152 | 4860 ft | 276 kts | 119° |
| 2026-05-05 03:57 | 25.75459 | -80.15275 | 5678 ft | 280 kts | 121° |
| 2026-05-05 03:57 | 25.74542 | -80.13344 | 6419 ft | 283 kts | 113° |
| 2026-05-05 03:57 | 25.74265 | -80.11155 | 7035 ft | 293 kts | 82° |
| 2026-05-05 03:57 | 25.74995 | -80.09080 | 7774 ft | 296 kts | 53° |
| 2026-05-05 03:58 | 25.76310 | -80.07302 | 8342 ft | 301 kts | 48° |
| 2026-05-05 03:58 | 25.77711 | -80.05535 | 9016 ft | 307 kts | 47° |
| 2026-05-05 03:58 | 25.79145 | -80.03748 | 9763 ft | 311 kts | 47° |
| 2026-05-05 03:58 | 25.80580 | -80.01961 | 10312 ft | 320 kts | 46° |
| 2026-05-05 03:59 | 25.82119 | -80.00039 | 10494 ft | 344 kts | 47° |
| 2026-05-05 03:59 | 25.83743 | -79.98000 | 10869 ft | 360 kts | 47° |
| 2026-05-05 03:59 | 25.85417 | -79.95887 | 11499 ft | 370 kts | 47° |
| 2026-05-05 03:59 | 25.87129 | -79.93717 | 12370 ft | 375 kts | 46° |
| 2026-05-05 04:00 | 25.88853 | -79.91525 | 13460 ft | 376 kts | 46° |
| 2026-05-05 04:00 | 25.90583 | -79.89324 | 14385 ft | 381 kts | 46° |
| 2026-05-05 04:00 | 25.92313 | -79.87122 | 15283 ft | 384 kts | 46° |
| 2026-05-05 04:00 | 25.94081 | -79.84870 | 16118 ft | 389 kts | 45° |
| 2026-05-05 04:01 | 25.95883 | -79.82576 | 16904 ft | 396 kts | 45° |
| 2026-05-05 04:01 | 25.97711 | -79.80245 | 17714 ft | 402 kts | 45° |
| 2026-05-05 04:01 | 25.99567 | -79.77878 | 18473 ft | 409 kts | 45° |
| 2026-05-05 04:01 | 26.01444 | -79.75483 | 19163 ft | 414 kts | 45° |
| 2026-05-05 04:02 | 26.03344 | -79.73054 | 19875 ft | 418 kts | 44° |
| 2026-05-05 04:02 | 26.05232 | -79.70640 | 20561 ft | 422 kts | 44° |
| 2026-05-05 04:02 | 26.07161 | -79.68173 | 21260 ft | 426 kts | 44° |
| 2026-05-05 04:02 | 26.09129 | -79.65657 | 21924 ft | 431 kts | 44° |
| 2026-05-05 04:03 | 26.11098 | -79.63111 | 22589 ft | 437 kts | 46° |
| 2026-05-05 04:03 | 26.12953 | -79.60387 | 23241 ft | 444 kts | 50° |
| 2026-05-05 04:03 | 26.14725 | -79.57544 | 23833 ft | 449 kts | 51° |
| 2026-05-05 04:03 | 26.16467 | -79.54686 | 24391 ft | 452 kts | 51° |
| 2026-05-05 04:04 | 26.18254 | -79.51774 | 25025 ft | 455 kts | 51° |
| 2026-05-05 04:04 | 26.20064 | -79.48870 | 25630 ft | 457 kts | 50° |
| 2026-05-05 04:04 | 26.21901 | -79.45959 | 26229 ft | 460 kts | 50° |
| 2026-05-05 04:04 | 26.23728 | -79.43077 | 26798 ft | 463 kts | 49° |
| 2026-05-05 04:05 | 26.25602 | -79.40125 | 27238 ft | 470 kts | 50° |
| 2026-05-05 04:05 | 26.27502 | -79.37127 | 27778 ft | 474 kts | 49° |
| 2026-05-05 04:05 | 26.29598 | -79.34323 | 28294 ft | 467 kts | 36° |
| 2026-05-05 04:05 | 26.32195 | -79.32256 | 28770 ft | 457 kts | 25° |
| 2026-05-05 04:06 | 26.34894 | -79.30412 | 29245 ft | 462 kts | 24° |
| 2026-05-05 04:06 | 26.37644 | -79.28549 | 29807 ft | 465 kts | 24° |
| 2026-05-05 04:06 | 26.40418 | -79.26650 | 30392 ft | 467 kts | 24° |
| 2026-05-05 04:06 | 26.43182 | -79.24728 | 30898 ft | 470 kts | 25° |
| 2026-05-05 04:07 | 26.45925 | -79.22797 | 31384 ft | 472 kts | 25° |
| 2026-05-05 04:07 | 26.48708 | -79.20821 | 31832 ft | 477 kts | 25° |
| 2026-05-05 04:07 | 26.51520 | -79.18816 | 32228 ft | 481 kts | 25° |
| 2026-05-05 04:07 | 26.54348 | -79.16792 | 32674 ft | 483 kts | 25° |
| 2026-05-05 04:08 | 26.57185 | -79.14759 | 33158 ft | 484 kts | 25° |
| 2026-05-05 04:08 | 26.60033 | -79.12718 | 33592 ft | 486 kts | 25° |
| 2026-05-05 04:08 | 26.62893 | -79.10668 | 33965 ft | 489 kts | 25° |
| 2026-05-05 04:08 | 26.65779 | -79.08602 | 34275 ft | 492 kts | 25° |
| 2026-05-05 04:09 | 26.68635 | -79.06555 | 34581 ft | 494 kts | 24° |
| 2026-05-05 04:09 | 26.71540 | -79.04472 | 34880 ft | 497 kts | 25° |
| 2026-05-05 04:09 | 26.74463 | -79.02375 | 35154 ft | 500 kts | 25° |
| 2026-05-05 04:09 | 26.77399 | -79.00266 | 35545 ft | 500 kts | 24° |
| 2026-05-05 04:10 | 26.80226 | -78.98233 | 35957 ft | 499 kts | 24° |
| 2026-05-05 04:10 | 26.83151 | -78.96128 | 36383 ft | 498 kts | 24° |
| 2026-05-05 04:10 | 26.86027 | -78.94057 | 36795 ft | 497 kts | 24° |
| 2026-05-05 04:10 | 26.88945 | -78.91956 | 37186 ft | 496 kts | 23° |
| 2026-05-05 04:11 | 26.91852 | -78.89863 | 37560 ft | 496 kts | 23° |
| 2026-05-05 04:11 | 26.94761 | -78.87768 | 37931 ft | 496 kts | 23° |
| 2026-05-05 04:11 | 26.97633 | -78.85697 | 38299 ft | 496 kts | 22° |
| 2026-05-05 04:11 | 27.00535 | -78.83604 | 38656 ft | 495 kts | 22° |
| 2026-05-05 04:12 | 27.03436 | -78.81509 | 39000 ft | 495 kts | 22° |
| 2026-05-05 04:12 | 27.06357 | -78.79402 | 39052 ft | 501 kts | 22° |
| 2026-05-05 04:12 | 27.12207 | -78.75174 | 39058 ft | 500 kts | 23° |
| 2026-05-05 04:13 | 27.18013 | -78.70960 | 39062 ft | 494 kts | 22° |
| 2026-05-05 04:13 | 27.23799 | -78.66771 | 39052 ft | 494 kts | 23° |
| 2026-05-05 04:14 | 27.29692 | -78.63136 | 39063 ft | 469 kts | 5° |
| 2026-05-05 04:14 | 27.32817 | -78.62551 | 39079 ft | 449 kts | 355° |
| 2026-05-05 04:14 | 27.35942 | -78.62224 | 39079 ft | 455 kts | 355° |
| 2026-05-05 04:15 | 27.41236 | -78.61643 | 39083 ft | 462 kts | 355° |
| 2026-05-05 04:15 | 27.47672 | -78.60856 | 39076 ft | 465 kts | 356° |
| 2026-05-05 04:16 | 27.54069 | -78.60028 | 39074 ft | 465 kts | 356° |
| 2026-05-05 04:16 | 27.61551 | -78.59047 | 39111 ft | 464 kts | 356° |
| 2026-05-05 04:17 | 27.66942 | -78.58344 | 39083 ft | 464 kts | 356° |
| 2026-05-05 04:17 | 27.73314 | -78.57513 | 39078 ft | 463 kts | 356° |
| 2026-05-05 04:18 | 27.79723 | -78.56677 | 39079 ft | 462 kts | 356° |
| 2026-05-05 04:18 | 27.86076 | -78.55849 | 39082 ft | 462 kts | 356° |
| 2026-05-05 04:19 | 27.92482 | -78.55013 | 39089 ft | 462 kts | 356° |
| 2026-05-05 04:19 | 27.98846 | -78.54182 | 39091 ft | 462 kts | 356° |
| 2026-05-05 04:20 | 28.05245 | -78.53344 | 39082 ft | 463 kts | 356° |
| 2026-05-05 04:20 | 28.11666 | -78.52502 | 39086 ft | 464 kts | 356° |
| 2026-05-05 04:21 | 28.18085 | -78.51660 | 39133 ft | 464 kts | 356° |
| 2026-05-05 04:21 | 28.24468 | -78.50823 | 39096 ft | 467 kts | 357° |
| 2026-05-05 04:22 | 28.30947 | -78.49971 | 39097 ft | 469 kts | 357° |
| 2026-05-05 04:22 | 28.37448 | -78.49114 | 39095 ft | 470 kts | 357° |
| 2026-05-05 04:23 | 28.43965 | -78.48253 | 39095 ft | 471 kts | 357° |
| 2026-05-05 04:23 | 28.50465 | -78.47395 | 39102 ft | 473 kts | 357° |
| 2026-05-05 04:24 | 28.57033 | -78.46527 | 39096 ft | 474 kts | 358° |
| 2026-05-05 04:25 | 28.66848 | -78.45226 | 39099 ft | 475 kts | 358° |
| 2026-05-05 04:25 | 28.73446 | -78.44350 | 39097 ft | 476 kts | 358° |
| 2026-05-05 04:26 | 28.80000 | -78.43480 | 39100 ft | 477 kts | 358° |
| 2026-05-05 04:26 | 28.86609 | -78.42601 | 39103 ft | 477 kts | 358° |
| 2026-05-05 04:27 | 28.93189 | -78.41725 | 39101 ft | 478 kts | 358° |
| 2026-05-05 04:27 | 28.99806 | -78.40842 | 39104 ft | 478 kts | 358° |
| 2026-05-05 04:28 | 29.06427 | -78.39958 | 39125 ft | 479 kts | 358° |
| 2026-05-05 04:28 | 29.13026 | -78.39076 | 39113 ft | 480 kts | 358° |
| 2026-05-05 04:29 | 29.19682 | -78.38185 | 39110 ft | 480 kts | 358° |
| 2026-05-05 04:29 | 29.26304 | -78.37298 | 39111 ft | 481 kts | 358° |
| 2026-05-05 04:30 | 29.32955 | -78.36405 | 39139 ft | 481 kts | 358° |
| 2026-05-05 04:30 | 29.39629 | -78.35508 | 39117 ft | 482 kts | 358° |
| 2026-05-05 04:31 | 29.46263 | -78.34615 | 39117 ft | 482 kts | 358° |
| 2026-05-05 04:31 | 29.52863 | -78.34282 | 39123 ft | 470 kts | 348° |
| 2026-05-05 04:32 | 29.59358 | -78.34891 | 39114 ft | 467 kts | 346° |
| 2026-05-05 04:32 | 29.65856 | -78.35537 | 39122 ft | 469 kts | 347° |
| 2026-05-05 04:33 | 29.72359 | -78.36064 | 39118 ft | 470 kts | 348° |
| 2026-05-05 04:33 | 29.78902 | -78.36542 | 39116 ft | 471 kts | 348° |
| 2026-05-05 04:34 | 29.85449 | -78.37018 | 39114 ft | 471 kts | 348° |
| 2026-05-05 04:34 | 29.91968 | -78.37499 | 39122 ft | 472 kts | 348° |
| 2026-05-05 04:35 | 29.98539 | -78.37987 | 39119 ft | 471 kts | 348° |
| 2026-05-05 04:35 | 30.05045 | -78.38470 | 39119 ft | 471 kts | 348° |
| 2026-05-05 04:36 | 30.11599 | -78.38942 | 39124 ft | 472 kts | 349° |
| 2026-05-05 04:36 | 30.18248 | -78.38519 | 39117 ft | 483 kts | 359° |
| 2026-05-05 04:37 | 30.24933 | -78.37425 | 39123 ft | 484 kts | 0° |
| 2026-05-05 04:37 | 30.31550 | -78.36366 | 39129 ft | 483 kts | 359° |
| 2026-05-05 04:38 | 30.38234 | -78.35355 | 39124 ft | 483 kts | 359° |
| 2026-05-05 04:38 | 30.44855 | -78.34197 | 39176 ft | 486 kts | 2° |
| 2026-05-05 04:39 | 30.51503 | -78.32647 | 39132 ft | 485 kts | 4° |
| 2026-05-05 04:39 | 30.58089 | -78.31066 | 39126 ft | 480 kts | 3° |
| 2026-05-05 04:40 | 30.64630 | -78.29533 | 39123 ft | 477 kts | 3° |
| 2026-05-05 04:40 | 30.71117 | -78.28031 | 39158 ft | 476 kts | 3° |
| 2026-05-05 04:41 | 30.77594 | -78.26530 | 39138 ft | 478 kts | 3° |
| 2026-05-05 04:41 | 30.84129 | -78.25010 | 39132 ft | 478 kts | 3° |
| 2026-05-05 04:42 | 30.90676 | -78.23483 | 39132 ft | 479 kts | 3° |
| 2026-05-05 04:42 | 30.97225 | -78.21974 | 39133 ft | 479 kts | 2° |
| 2026-05-05 04:43 | 31.03756 | -78.20527 | 39135 ft | 481 kts | 2° |
| 2026-05-05 04:43 | 31.10353 | -78.19068 | 39133 ft | 482 kts | 2° |
| 2026-05-05 04:44 | 31.16955 | -78.17596 | 39131 ft | 482 kts | 2° |
| 2026-05-05 04:44 | 31.23517 | -78.16127 | 39131 ft | 482 kts | 2° |
| 2026-05-05 04:45 | 31.30124 | -78.14647 | 39143 ft | 483 kts | 3° |
| 2026-05-05 04:45 | 31.36749 | -78.13160 | 39138 ft | 483 kts | 3° |
| 2026-05-05 04:46 | 31.43326 | -78.11683 | 39130 ft | 483 kts | 2° |
| 2026-05-05 04:46 | 31.49931 | -78.10455 | 39130 ft | 479 kts | 0° |
| 2026-05-05 04:47 | 31.56547 | -78.09393 | 39138 ft | 479 kts | 0° |
| 2026-05-05 04:47 | 31.63122 | -78.08317 | 39132 ft | 479 kts | 0° |
| 2026-05-05 04:48 | 31.69725 | -78.07197 | 39134 ft | 478 kts | 1° |
| 2026-05-05 04:48 | 31.76286 | -78.06069 | 39123 ft | 478 kts | 1° |
| 2026-05-05 04:49 | 31.82870 | -78.04934 | 39143 ft | 477 kts | 1° |
| 2026-05-05 04:49 | 31.89411 | -78.03806 | 39138 ft | 477 kts | 1° |
| 2026-05-05 04:50 | 31.95997 | -78.02669 | 39133 ft | 477 kts | 1° |
| 2026-05-05 04:50 | 32.02553 | -78.01536 | 39134 ft | 476 kts | 1° |
| 2026-05-05 04:51 | 32.09073 | -78.00409 | 39141 ft | 477 kts | 2° |
| 2026-05-05 04:51 | 32.15548 | -77.99287 | 39136 ft | 477 kts | 2° |
| 2026-05-05 04:52 | 32.22124 | -77.98146 | 39126 ft | 477 kts | 2° |
| 2026-05-05 04:52 | 32.28664 | -77.97009 | 39128 ft | 476 kts | 2° |
| 2026-05-05 04:53 | 32.35205 | -77.95871 | 39140 ft | 476 kts | 2° |
| 2026-05-05 04:53 | 32.41779 | -77.94726 | 39125 ft | 477 kts | 2° |
| 2026-05-05 04:54 | 32.48359 | -77.93578 | 39138 ft | 477 kts | 2° |
| 2026-05-05 04:54 | 32.54923 | -77.92430 | 39137 ft | 478 kts | 2° |
| 2026-05-05 04:55 | 32.61531 | -77.91274 | 39137 ft | 479 kts | 2° |
| 2026-05-05 04:55 | 32.68108 | -77.90120 | 39132 ft | 480 kts | 2° |
| 2026-05-05 04:56 | 32.74724 | -77.88958 | 39128 ft | 480 kts | 2° |
| 2026-05-05 04:56 | 32.81353 | -77.87792 | 39126 ft | 480 kts | 2° |
| 2026-05-05 04:57 | 32.87940 | -77.86632 | 39127 ft | 480 kts | 2° |
| 2026-05-05 04:57 | 32.94565 | -77.85463 | 39127 ft | 480 kts | 2° |
| 2026-05-05 04:58 | 33.01132 | -77.84303 | 39127 ft | 480 kts | 2° |
| 2026-05-05 04:58 | 33.07752 | -77.83132 | 39125 ft | 479 kts | 2° |
| 2026-05-05 04:59 | 33.14324 | -77.81968 | 39134 ft | 479 kts | 2° |
| 2026-05-05 04:59 | 33.20934 | -77.80795 | 39124 ft | 479 kts | 2° |
| 2026-05-05 05:00 | 33.26419 | -77.79820 | 39131 ft | 478 kts | 2° |
| 2026-05-05 05:00 | 33.34068 | -77.78458 | 39125 ft | 477 kts | 2° |
| 2026-05-05 05:01 | 33.39545 | -77.77482 | 39132 ft | 477 kts | 3° |
| 2026-05-05 05:01 | 33.47179 | -77.76120 | 39119 ft | 476 kts | 3° |
| 2026-05-05 05:02 | 33.52639 | -77.75143 | 39119 ft | 476 kts | 3° |
| 2026-05-05 05:02 | 33.59182 | -77.73972 | 39120 ft | 475 kts | 3° |
| 2026-05-05 05:03 | 33.65730 | -77.72798 | 39124 ft | 475 kts | 3° |
| 2026-05-05 05:03 | 33.72241 | -77.71561 | 39116 ft | 476 kts | 5° |
| 2026-05-05 05:04 | 33.78770 | -77.70118 | 39116 ft | 476 kts | 5° |
| 2026-05-05 05:04 | 33.85242 | -77.68664 | 39117 ft | 476 kts | 5° |
| 2026-05-05 05:05 | 33.91779 | -77.67221 | 39123 ft | 476 kts | 5° |
| 2026-05-05 05:05 | 33.98261 | -77.65802 | 39117 ft | 475 kts | 5° |
| 2026-05-05 05:06 | 34.04741 | -77.64384 | 39117 ft | 475 kts | 5° |
| 2026-05-05 05:06 | 34.11256 | -77.62954 | 39132 ft | 475 kts | 5° |
| 2026-05-05 05:07 | 34.17727 | -77.61531 | 39111 ft | 475 kts | 5° |
| 2026-05-05 05:07 | 34.24239 | -77.60097 | 39112 ft | 474 kts | 5° |
| 2026-05-05 05:08 | 34.30739 | -77.58662 | 39109 ft | 474 kts | 5° |
| 2026-05-05 05:08 | 34.37233 | -77.57228 | 39137 ft | 474 kts | 5° |
| 2026-05-05 05:09 | 34.43707 | -77.55795 | 39117 ft | 475 kts | 5° |
| 2026-05-05 05:09 | 34.50202 | -77.54215 | 39114 ft | 478 kts | 11° |
| 2026-05-05 05:10 | 34.56491 | -77.51360 | 39112 ft | 486 kts | 21° |
| 2026-05-05 05:10 | 34.62520 | -77.47728 | 39125 ft | 487 kts | 22° |
| 2026-05-05 05:11 | 34.68582 | -77.44014 | 39115 ft | 487 kts | 22° |
| 2026-05-05 05:11 | 34.74654 | -77.40340 | 39109 ft | 486 kts | 21° |
| 2026-05-05 05:12 | 34.80696 | -77.36712 | 39110 ft | 486 kts | 21° |
| 2026-05-05 05:12 | 34.86740 | -77.33085 | 39123 ft | 486 kts | 21° |
| 2026-05-05 05:13 | 34.92803 | -77.29438 | 39114 ft | 485 kts | 21° |
| 2026-05-05 05:13 | 34.98858 | -77.25787 | 39113 ft | 484 kts | 21° |
| 2026-05-05 05:14 | 35.04886 | -77.22146 | 39111 ft | 483 kts | 21° |
| 2026-05-05 05:14 | 35.10890 | -77.18514 | 39127 ft | 483 kts | 21° |
| 2026-05-05 05:15 | 35.16917 | -77.14862 | 39105 ft | 483 kts | 21° |
| 2026-05-05 05:15 | 35.22948 | -77.11201 | 39102 ft | 484 kts | 21° |
| 2026-05-05 05:16 | 35.28942 | -77.07557 | 39100 ft | 484 kts | 22° |
| 2026-05-05 05:16 | 35.34977 | -77.03882 | 39107 ft | 484 kts | 22° |
| 2026-05-05 05:17 | 35.40973 | -77.00224 | 39110 ft | 484 kts | 22° |
| 2026-05-05 05:17 | 35.46869 | -76.96620 | 39108 ft | 485 kts | 22° |
| 2026-05-05 05:18 | 35.52880 | -76.92941 | 39109 ft | 485 kts | 22° |
| 2026-05-05 05:18 | 35.58931 | -76.89232 | 39112 ft | 485 kts | 22° |
| 2026-05-05 05:19 | 35.64996 | -76.85539 | 39079 ft | 485 kts | 21° |
| 2026-05-05 05:19 | 35.71053 | -76.81855 | 39085 ft | 486 kts | 21° |
| 2026-05-05 05:20 | 35.77073 | -76.78183 | 39105 ft | 486 kts | 22° |
| 2026-05-05 05:20 | 35.83133 | -76.74477 | 39089 ft | 486 kts | 22° |
| 2026-05-05 05:21 | 35.89202 | -76.70759 | 39098 ft | 487 kts | 22° |
| 2026-05-05 05:21 | 35.95202 | -76.66932 | 39097 ft | 488 kts | 24° |
| 2026-05-05 05:22 | 36.01118 | -76.62893 | 39127 ft | 488 kts | 25° |
| 2026-05-05 05:22 | 36.07077 | -76.58807 | 39107 ft | 488 kts | 24° |
| 2026-05-05 05:23 | 36.13036 | -76.54754 | 39097 ft | 487 kts | 24° |
| 2026-05-05 05:23 | 36.18983 | -76.50724 | 39089 ft | 486 kts | 24° |
| 2026-05-05 05:24 | 36.24884 | -76.46720 | 39092 ft | 486 kts | 24° |
| 2026-05-05 05:24 | 36.30811 | -76.42691 | 39074 ft | 486 kts | 24° |
| 2026-05-05 05:25 | 36.36727 | -76.38660 | 39074 ft | 486 kts | 24° |
| 2026-05-05 05:25 | 36.42664 | -76.34607 | 39073 ft | 486 kts | 24° |
| 2026-05-05 05:26 | 36.48564 | -76.30573 | 39076 ft | 486 kts | 25° |
| 2026-05-05 05:26 | 36.54503 | -76.26504 | 39066 ft | 486 kts | 25° |
| 2026-05-05 05:27 | 36.60420 | -76.22444 | 39064 ft | 486 kts | 25° |
| 2026-05-05 05:27 | 36.69273 | -76.16356 | 39082 ft | 485 kts | 25° |
| 2026-05-05 05:28 | 36.75198 | -76.12272 | 39056 ft | 485 kts | 25° |
| 2026-05-05 05:28 | 36.81073 | -76.08215 | 39045 ft | 485 kts | 25° |
| 2026-05-05 05:29 | 36.86991 | -76.04121 | 39047 ft | 485 kts | 25° |
| 2026-05-05 05:29 | 36.92888 | -76.00034 | 39056 ft | 485 kts | 25° |
| 2026-05-05 05:30 | 36.98635 | -75.96045 | 39047 ft | 484 kts | 25° |
| 2026-05-05 05:30 | 37.04467 | -75.91989 | 39042 ft | 482 kts | 25° |
| 2026-05-05 05:31 | 37.10477 | -75.88375 | 39033 ft | 476 kts | 16° |
| 2026-05-05 05:31 | 37.16801 | -75.86038 | 39039 ft | 471 kts | 11° |
| 2026-05-05 05:32 | 37.23103 | -75.83935 | 39027 ft | 471 kts | 11° |
| 2026-05-05 05:32 | 37.29447 | -75.81777 | 39029 ft | 471 kts | 11° |
| 2026-05-05 05:33 | 37.35740 | -75.79595 | 39028 ft | 471 kts | 11° |
| 2026-05-05 05:33 | 37.42056 | -75.77390 | 39017 ft | 471 kts | 11° |
| 2026-05-05 05:34 | 37.48376 | -75.75181 | 39018 ft | 470 kts | 11° |
| 2026-05-05 05:34 | 37.54648 | -75.72988 | 39032 ft | 470 kts | 11° |
| 2026-05-05 05:35 | 37.60968 | -75.70774 | 39037 ft | 470 kts | 11° |
| 2026-05-05 05:35 | 37.67290 | -75.68555 | 39029 ft | 470 kts | 11° |
| 2026-05-05 05:36 | 37.73567 | -75.66348 | 39018 ft | 470 kts | 11° |
| 2026-05-05 05:36 | 37.79846 | -75.64131 | 39022 ft | 471 kts | 13° |
| 2026-05-05 05:37 | 37.85955 | -75.60931 | 39018 ft | 478 kts | 24° |
| 2026-05-05 05:37 | 37.91578 | -75.56376 | 39017 ft | 482 kts | 31° |
| 2026-05-05 05:38 | 37.97038 | -75.51509 | 38997 ft | 482 kts | 31° |
| 2026-05-05 05:38 | 38.02568 | -75.46670 | 39009 ft | 483 kts | 31° |
| 2026-05-05 05:39 | 38.08160 | -75.41896 | 39000 ft | 484 kts | 29° |
| 2026-05-05 05:39 | 38.13815 | -75.37329 | 38999 ft | 484 kts | 28° |
| 2026-05-05 05:40 | 38.19500 | -75.32703 | 39004 ft | 485 kts | 29° |
| 2026-05-05 05:40 | 38.25400 | -75.28763 | 39011 ft | 478 kts | 17° |
| 2026-05-05 05:41 | 38.31771 | -75.26565 | 39007 ft | 471 kts | 5° |
| 2026-05-05 05:41 | 38.38222 | -75.25332 | 39003 ft | 471 kts | 4° |
| 2026-05-05 05:42 | 38.44676 | -75.24058 | 39015 ft | 471 kts | 5° |
| 2026-05-05 05:42 | 38.47926 | -75.23383 | 38480 ft | 474 kts | 5° |
| 2026-05-05 05:42 | 38.51179 | -75.22692 | 37928 ft | 468 kts | 5° |
| 2026-05-05 05:43 | 38.54379 | -75.22004 | 37446 ft | 463 kts | 6° |
| 2026-05-05 05:43 | 38.57555 | -75.21323 | 36964 ft | 462 kts | 6° |
| 2026-05-05 05:43 | 38.60679 | -75.20655 | 36494 ft | 459 kts | 6° |
| 2026-05-05 05:43 | 38.63818 | -75.19985 | 36033 ft | 453 kts | 6° |
| 2026-05-05 05:44 | 38.66898 | -75.19258 | 35557 ft | 449 kts | 11° |
| 2026-05-05 05:44 | 38.69861 | -75.18000 | 35072 ft | 449 kts | 20° |
| 2026-05-05 05:44 | 38.72644 | -75.16243 | 34627 ft | 446 kts | 27° |
| 2026-05-05 05:44 | 38.75200 | -75.14023 | 34159 ft | 444 kts | 34° |
| 2026-05-05 05:45 | 38.76823 | -75.12435 | 33867 ft | 441 kts | 35° |
| 2026-05-05 05:45 | 38.79223 | -75.10033 | 33361 ft | 437 kts | 36° |
| 2026-05-05 05:45 | 38.81604 | -75.07638 | 32888 ft | 432 kts | 36° |
| 2026-05-05 05:45 | 38.83966 | -75.05276 | 32458 ft | 427 kts | 36° |
| 2026-05-05 05:46 | 38.86315 | -75.02947 | 32015 ft | 423 kts | 36° |
| 2026-05-05 05:46 | 38.88616 | -75.00679 | 31571 ft | 420 kts | 35° |
| 2026-05-05 05:46 | 38.90845 | -74.98487 | 31161 ft | 417 kts | 36° |
| 2026-05-05 05:46 | 38.93156 | -74.96216 | 30746 ft | 416 kts | 35° |
| 2026-05-05 05:47 | 38.95459 | -74.93953 | 30319 ft | 416 kts | 35° |
| 2026-05-05 05:47 | 38.97741 | -74.91709 | 29847 ft | 416 kts | 36° |
| 2026-05-05 05:47 | 39.00036 | -74.89450 | 29358 ft | 417 kts | 35° |
| 2026-05-05 05:47 | 39.02353 | -74.87164 | 28887 ft | 417 kts | 36° |
| 2026-05-05 05:48 | 39.04617 | -74.84929 | 28422 ft | 416 kts | 37° |
| 2026-05-05 05:48 | 39.06919 | -74.82654 | 27967 ft | 415 kts | 36° |
| 2026-05-05 05:48 | 39.09209 | -74.80388 | 27498 ft | 413 kts | 37° |
| 2026-05-05 05:48 | 39.11452 | -74.78109 | 27066 ft | 411 kts | 38° |
| 2026-05-05 05:49 | 39.13619 | -74.75786 | 26644 ft | 408 kts | 39° |
| 2026-05-05 05:49 | 39.15784 | -74.73418 | 26216 ft | 407 kts | 39° |
| 2026-05-05 05:49 | 39.17939 | -74.71053 | 25783 ft | 405 kts | 39° |
| 2026-05-05 05:49 | 39.20079 | -74.68712 | 25354 ft | 403 kts | 39° |
| 2026-05-05 05:50 | 39.22245 | -74.66354 | 24786 ft | 412 kts | 39° |
| 2026-05-05 05:50 | 39.24459 | -74.63949 | 24370 ft | 414 kts | 39° |
| 2026-05-05 05:50 | 39.26675 | -74.61545 | 24139 ft | 415 kts | 39° |
| 2026-05-05 05:50 | 39.28851 | -74.59185 | 24014 ft | 413 kts | 39° |
| 2026-05-05 05:51 | 39.31050 | -74.56798 | 23876 ft | 412 kts | 39° |
| 2026-05-05 05:51 | 39.33253 | -74.54404 | 23551 ft | 412 kts | 39° |
| 2026-05-05 05:51 | 39.35420 | -74.52045 | 23002 ft | 412 kts | 39° |
| 2026-05-05 05:51 | 39.37626 | -74.49642 | 22497 ft | 415 kts | 39° |
| 2026-05-05 05:52 | 39.39827 | -74.47244 | 22006 ft | 411 kts | 39° |
| 2026-05-05 05:52 | 39.42008 | -74.44865 | 21512 ft | 406 kts | 39° |
| 2026-05-05 05:52 | 39.44155 | -74.42522 | 21039 ft | 402 kts | 39° |
| 2026-05-05 05:52 | 39.46277 | -74.40206 | 20579 ft | 398 kts | 39° |
| 2026-05-05 05:53 | 39.48389 | -74.37898 | 20099 ft | 395 kts | 39° |
| 2026-05-05 05:53 | 39.50459 | -74.35635 | 19666 ft | 392 kts | 39° |
| 2026-05-05 05:53 | 39.52541 | -74.33356 | 19222 ft | 389 kts | 39° |
| 2026-05-05 05:53 | 39.54607 | -74.31093 | 18780 ft | 386 kts | 39° |
| 2026-05-05 05:54 | 39.56658 | -74.28845 | 18332 ft | 384 kts | 39° |
| 2026-05-05 05:54 | 39.58694 | -74.26611 | 17870 ft | 382 kts | 39° |
| 2026-05-05 05:54 | 39.60689 | -74.24420 | 17545 ft | 378 kts | 39° |
| 2026-05-05 05:54 | 39.62693 | -74.22218 | 17195 ft | 376 kts | 39° |
| 2026-05-05 05:55 | 39.64690 | -74.20023 | 16873 ft | 375 kts | 39° |
| 2026-05-05 05:55 | 39.66682 | -74.17831 | 16537 ft | 376 kts | 39° |
| 2026-05-05 05:55 | 39.68686 | -74.15623 | 16191 ft | 375 kts | 39° |
| 2026-05-05 05:55 | 39.70647 | -74.13462 | 15864 ft | 374 kts | 38° |
| 2026-05-05 05:56 | 39.72630 | -74.11275 | 15540 ft | 372 kts | 38° |
| 2026-05-05 05:56 | 39.74602 | -74.09097 | 15210 ft | 371 kts | 38° |
| 2026-05-05 05:56 | 39.76572 | -74.06919 | 14880 ft | 370 kts | 38° |
| 2026-05-05 05:56 | 39.78504 | -74.04783 | 14561 ft | 368 kts | 38° |
| 2026-05-05 05:57 | 39.80441 | -74.02640 | 14242 ft | 365 kts | 38° |
| 2026-05-05 05:57 | 39.82367 | -74.00507 | 13917 ft | 360 kts | 38° |
| 2026-05-05 05:57 | 39.84194 | -73.98513 | 13574 ft | 353 kts | 34° |
| 2026-05-05 05:57 | 39.86244 | -73.96798 | 13243 ft | 348 kts | 26° |
| 2026-05-05 05:58 | 39.88384 | -73.95334 | 12915 ft | 347 kts | 24° |
| 2026-05-05 05:58 | 39.90519 | -73.93925 | 12612 ft | 349 kts | 24° |
| 2026-05-05 05:58 | 39.92684 | -73.92469 | 12303 ft | 349 kts | 24° |
| 2026-05-05 05:58 | 39.94832 | -73.90989 | 11985 ft | 347 kts | 25° |
| 2026-05-05 05:59 | 39.96938 | -73.89511 | 11652 ft | 340 kts | 25° |
| 2026-05-05 05:59 | 39.98995 | -73.88051 | 11373 ft | 333 kts | 25° |
| 2026-05-05 05:59 | 40.00999 | -73.86626 | 11104 ft | 326 kts | 25° |
| 2026-05-05 05:59 | 40.02931 | -73.85254 | 11040 ft | 313 kts | 25° |
| 2026-05-05 06:00 | 40.04822 | -73.83911 | 10993 ft | 305 kts | 25° |
| 2026-05-05 06:00 | 40.06686 | -73.82591 | 10999 ft | 305 kts | 25° |
| 2026-05-05 06:00 | 40.08547 | -73.81277 | 11007 ft | 307 kts | 25° |
| 2026-05-05 06:00 | 40.10412 | -73.79959 | 10992 ft | 300 kts | 25° |
| 2026-05-05 06:01 | 40.12240 | -73.78667 | 10993 ft | 297 kts | 25° |
| 2026-05-05 06:01 | 40.14050 | -73.77389 | 10989 ft | 295 kts | 25° |
| 2026-05-05 06:01 | 40.15848 | -73.76120 | 10850 ft | 292 kts | 25° |
| 2026-05-05 06:01 | 40.17612 | -73.74802 | 10537 ft | 291 kts | 27° |
| 2026-05-05 06:02 | 40.19336 | -73.73447 | 10191 ft | 292 kts | 28° |
| 2026-05-05 06:02 | 40.21064 | -73.72082 | 9867 ft | 291 kts | 28° |
| 2026-05-05 06:02 | 40.22799 | -73.70705 | 9575 ft | 292 kts | 28° |
| 2026-05-05 06:02 | 40.24536 | -73.69325 | 9425 ft | 290 kts | 28° |
| 2026-05-05 06:03 | 40.26252 | -73.67960 | 9236 ft | 288 kts | 28° |
| 2026-05-05 06:03 | 40.27974 | -73.66591 | 9016 ft | 288 kts | 28° |
| 2026-05-05 06:03 | 40.29681 | -73.65233 | 8769 ft | 288 kts | 28° |
| 2026-05-05 06:03 | 40.31396 | -73.63871 | 8524 ft | 288 kts | 27° |
| 2026-05-05 06:04 | 40.33099 | -73.62517 | 8360 ft | 286 kts | 27° |
| 2026-05-05 06:04 | 40.34773 | -73.61186 | 8118 ft | 287 kts | 27° |
| 2026-05-05 06:04 | 40.36466 | -73.59842 | 8048 ft | 281 kts | 27° |
| 2026-05-05 06:04 | 40.38136 | -73.58517 | 7999 ft | 281 kts | 27° |
| 2026-05-05 06:05 | 40.39818 | -73.57181 | 8000 ft | 284 kts | 27° |
| 2026-05-05 06:05 | 40.41540 | -73.55813 | 7799 ft | 284 kts | 27° |
| 2026-05-05 06:05 | 40.43231 | -73.54470 | 7463 ft | 285 kts | 27° |
| 2026-05-05 06:05 | 40.44909 | -73.53138 | 7155 ft | 285 kts | 27° |
| 2026-05-05 06:06 | 40.46601 | -73.51794 | 6856 ft | 284 kts | 27° |
| 2026-05-05 06:06 | 40.48285 | -73.50456 | 6548 ft | 284 kts | 27° |
| 2026-05-05 06:06 | 40.49974 | -73.49115 | 6261 ft | 283 kts | 27° |
| 2026-05-05 06:06 | 40.51662 | -73.47783 | 5923 ft | 279 kts | 25° |
| 2026-05-05 06:07 | 40.53460 | -73.46989 | 5439 ft | 272 kts | 2° |
| 2026-05-05 06:07 | 40.55329 | -73.46754 | 5058 ft | 273 kts | 358° |
| 2026-05-05 06:07 | 40.57229 | -73.46596 | 4734 ft | 273 kts | 357° |
| 2026-05-05 06:07 | 40.59132 | -73.46445 | 4406 ft | 274 kts | 357° |
| 2026-05-05 06:08 | 40.61036 | -73.46292 | 4135 ft | 273 kts | 357° |
| 2026-05-05 06:08 | 40.62906 | -73.46316 | 3805 ft | 268 kts | 349° |
| 2026-05-05 06:08 | 40.64744 | -73.46541 | 3637 ft | 261 kts | 347° |
| 2026-05-05 06:08 | 40.66528 | -73.46774 | 3564 ft | 252 kts | 347° |
| 2026-05-05 06:09 | 40.68240 | -73.46991 | 3510 ft | 243 kts | 347° |
| 2026-05-05 06:09 | 40.69902 | -73.47190 | 3385 ft | 236 kts | 347° |
| 2026-05-05 06:09 | 40.71398 | -73.47744 | 3043 ft | 220 kts | 317° |
| 2026-05-05 06:09 | 40.72517 | -73.49048 | 3023 ft | 214 kts | 307° |
| 2026-05-05 06:10 | 40.73568 | -73.50399 | 2985 ft | 205 kts | 307° |
| 2026-05-05 06:10 | 40.74544 | -73.51654 | 2951 ft | 190 kts | 301° |
| 2026-05-05 06:10 | 40.75289 | -73.53039 | 3001 ft | 184 kts | 296° |
| 2026-05-05 06:10 | 40.76050 | -73.54433 | 2987 ft | 185 kts | 296° |
| 2026-05-05 06:11 | 40.76813 | -73.55797 | 2994 ft | 184 kts | 296° |
| 2026-05-05 06:11 | 40.77453 | -73.57216 | 2989 ft | 178 kts | 288° |
| 2026-05-05 06:11 | 40.78003 | -73.58684 | 2995 ft | 178 kts | 287° |
| 2026-05-05 06:11 | 40.78535 | -73.60161 | 2970 ft | 175 kts | 282° |
| 2026-05-05 06:12 | 40.78582 | -73.61677 | 2977 ft | 167 kts | 247° |
| 2026-05-05 06:12 | 40.78048 | -73.63041 | 2986 ft | 165 kts | 238° |
| 2026-05-05 06:12 | 40.77477 | -73.64262 | 2999 ft | 152 kts | 237° |
| 2026-05-05 06:12 | 40.76866 | -73.65342 | 2984 ft | 147 kts | 223° |
| 2026-05-05 06:13 | 40.76046 | -73.66140 | 2925 ft | 147 kts | 221° |
| 2026-05-05 06:13 | 40.75216 | -73.66978 | 2630 ft | 153 kts | 220° |
| 2026-05-05 06:13 | 40.74324 | -73.67769 | 2280 ft | 152 kts | 216° |
| 2026-05-05 06:13 | 40.73476 | -73.68452 | 2065 ft | 134 kts | 215° |
| 2026-05-05 06:14 | 40.72729 | -73.69045 | 1889 ft | 122 kts | 214° |
| 2026-05-05 06:14 | 40.72028 | -73.69597 | 1742 ft | 112 kts | 216° |
| 2026-05-05 06:14 | 40.71389 | -73.70100 | 1617 ft | 108 kts | 216° |
| 2026-05-05 06:14 | 40.70747 | -73.70605 | 1450 ft | 107 kts | 215° |
| 2026-05-05 06:15 | 40.70081 | -73.71130 | 1310 ft | 114 kts | 213° |
| 2026-05-05 06:15 | 40.69412 | -73.71654 | 1156 ft | 112 kts | 213° |
| 2026-05-05 06:15 | 40.68742 | -73.72180 | 1013 ft | 112 kts | 212° |
| 2026-05-05 06:15 | 40.68040 | -73.72731 | 838 ft | 120 kts | 212° |
| 2026-05-05 06:16 | 40.67305 | -73.73307 | 672 ft | 124 kts | 210° |
| 2026-05-05 06:16 | 40.66566 | -73.73890 | 514 ft | 125 kts | 209° |
| 2026-05-05 06:16 | 40.65825 | -73.74470 | 360 ft | 124 kts | 208° |
| 2026-05-05 06:16 | 40.65076 | -73.75057 | 174 ft | 123 kts | 209° |
| 2026-05-05 06:17 | 40.64336 | -73.75635 | 40 ft | 123 kts | 210° |
| 2026-05-05 06:17 | 40.63701 | -73.76131 | 26 ft | 82 kts | 210° |
| 2026-05-05 06:17 | 40.63352 | -73.76408 | 26 ft | 28 kts | 216° |
| 2026-05-05 06:17 | 40.63267 | -73.76569 | 27 ft | 21 kts | 242° |
| 2026-05-05 06:18 | 40.63243 | -73.76718 | 28 ft | 16 kts | 287° |
| 2026-05-05 06:18 | 40.63296 | -73.76843 | 29 ft | 16 kts | 302° |
| 2026-05-05 06:18 | 40.63353 | -73.76965 | 30 ft | 16 kts | 302° |
| 2026-05-05 06:18 | 40.63408 | -73.77088 | 29 ft | 16 kts | 298° |
| 2026-05-05 06:19 | 40.63462 | -73.77213 | 28 ft | 16 kts | 300° |
| 2026-05-05 06:19 | 40.63518 | -73.77335 | 30 ft | 16 kts | 302° |
| 2026-05-05 06:19 | 40.63574 | -73.77456 | 29 ft | 16 kts | 301° |
| 2026-05-05 06:19 | 40.63631 | -73.77577 | 30 ft | 16 kts | 304° |
| 2026-05-05 06:20 | 40.63682 | -73.77660 | 27 ft | 9 kts | 333° |
| 2026-05-05 06:20 | 40.63745 | -73.77647 | 27 ft | 9 kts | 354° |
| 2026-05-05 06:20 | 40.63795 | -73.77702 | 29 ft | 10 kts | 322° |
| 2026-05-05 06:20 | 40.63849 | -73.77753 | 27 ft | 10 kts | 325° |
| 2026-05-05 06:21 | 40.63904 | -73.77803 | 30 ft | 10 kts | 326° |
| 2026-05-05 06:21 | 40.63961 | -73.77848 | 30 ft | 10 kts | 330° |
| 2026-05-05 06:21 | 40.64016 | -73.77897 | 27 ft | 10 kts | 308° |
| 2026-05-05 06:21 | 40.64044 | -73.77961 | 29 ft | 7 kts | 309° |
| 2026-05-05 06:22 | 40.64077 | -73.77994 | 29 ft | 4 kts | 327° |
| 2026-05-05 06:22 | 40.64093 | -73.78009 | 29 ft | 3 kts | 320° |
| 2026-05-05 06:22 | 40.64097 | -73.78033 | 30 ft | 3 kts | 263° |
| 2026-05-05 06:22 | 40.64093 | -73.78051 | 28 ft | 3 kts | 254° |
| 2026-05-05 06:23 | 40.64084 | -73.78076 | 30 ft | 3 kts | 243° |
| 2026-05-05 06:23 | 40.64073 | -73.78103 | 29 ft | 1 kts | 240° |
| 2026-05-05 06:23 | 40.64071 | -73.78108 | 29 ft | 0 kts | 240° |